createdAt,value
2024-01-15T00:00:18.040Z,96242.41
2024-01-15T00:02:44.861Z,96246.56
2024-01-15T00:05:11.617Z,96240.47
2024-01-15T00:07:38.486Z,96245.31
2024-01-15T00:10:05.740Z,96245.84
2024-01-15T00:12:33.322Z,96253.19
2024-01-15T00:15:00.223Z,96243.66
2024-01-15T00:17:26.947Z,96253.53
2024-01-15T00:19:53.950Z,96247.22
2024-01-15T00:22:20.920Z,96239.16
2024-01-15T00:24:47.853Z,96248.47
2024-01-15T00:27:14.748Z,96243.81
2024-01-15T00:29:41.539Z,96237.00
2024-01-15T00:32:08.256Z,96237.72
2024-01-15T00:34:35.171Z,96241.66
2024-01-15T00:37:01.886Z,96234.13
2024-01-15T00:39:28.700Z,96237.53
2024-01-15T00:41:55.323Z,96240.22
2024-01-15T00:44:21.991Z,96229.25
2024-01-15T00:46:48.773Z,96233.41
2024-01-15T00:49:15.947Z,96235.88
2024-01-15T00:51:42.855Z,96233.22
2024-01-15T00:54:09.828Z,96240.56
2024-01-15T00:56:37.899Z,96241.28
2024-01-15T00:59:04.680Z,96227.09
2024-01-15T01:01:31.506Z,96235.88
2024-01-15T01:03:58.602Z,96236.44
2024-01-15T01:06:26.102Z,96227.81
2024-01-15T01:08:52.898Z,96242.72
2024-01-15T01:11:19.631Z,96236.59
2024-01-15T01:13:46.341Z,96240.22
2024-01-15T01:16:13.071Z,96237.31
2024-01-15T01:18:40.248Z,96242.19
2024-01-15T01:21:07.156Z,96236.09
2024-01-15T01:23:33.936Z,96236.81
2024-01-15T01:26:00.721Z,96229.47
2024-01-15T01:28:27.501Z,96222.13
2024-01-15T01:30:54.314Z,96219.44
2024-01-15T01:33:21.624Z,96216.75
2024-01-15T01:35:48.693Z,96225.53
2024-01-15T01:38:15.441Z,96213.34
2024-01-15T01:40:42.082Z,96216.03
2024-01-15T01:43:10.424Z,96214.78
2024-01-15T01:45:37.450Z,96211.38
2024-01-15T01:48:05.579Z,96219.44
2024-01-15T01:50:33.004Z,96211.91
2024-01-15T01:53:00.691Z,96215.31
2024-01-15T01:55:29.053Z,96212.63
2024-01-15T01:57:56.658Z,96209.94
2024-01-15T02:00:23.614Z,96213.34
2024-01-15T02:02:50.866Z,96219.44
2024-01-15T02:05:20.469Z,96206.53
2024-01-15T02:07:47.281Z,96209.94
2024-01-15T02:10:14.887Z,96205.06
2024-01-15T02:12:41.697Z,96206.00
2024-01-15T02:15:08.797Z,96201.16
2024-01-15T02:17:35.648Z,96201.88
2024-01-15T02:20:02.783Z,96197.94
2024-01-15T02:22:29.584Z,96191.81
2024-01-15T02:24:56.301Z,96193.09
2024-01-15T02:27:22.998Z,96202.59
2024-01-15T02:29:49.978Z,96207.25
2024-01-15T02:32:16.755Z,96210.66
2024-01-15T02:34:43.641Z,96211.16
2024-01-15T02:37:10.457Z,96195.78
2024-01-15T02:39:37.150Z,96201.16
2024-01-15T02:42:03.927Z,96206.53
2024-01-15T02:44:30.591Z,96205.78
2024-01-15T02:46:57.238Z,96217.28
2024-01-15T02:49:23.926Z,96211.91
2024-01-15T02:51:50.803Z,96208.47
2024-01-15T02:54:17.596Z,96206.53
2024-01-15T02:56:44.419Z,96207.75
2024-01-15T02:59:11.087Z,96198.97
2024-01-15T03:01:38.241Z,96197.53
2024-01-15T03:04:05.094Z,96196.28
2024-01-15T03:06:32.010Z,96188.94
2024-01-15T03:08:58.723Z,96178.19
2024-01-15T03:11:25.871Z,96186.97
2024-01-15T03:13:52.573Z,96173.53
2024-01-15T03:16:21.035Z,96180.34
2024-01-15T03:18:47.822Z,96181.06
2024-01-15T03:21:14.695Z,96184.47
2024-01-15T03:23:41.330Z,96174.44
2024-01-15T03:26:08.081Z,96171.22
2024-01-15T03:28:34.871Z,96174.63
2024-01-15T03:31:01.770Z,96166.75
2024-01-15T03:33:28.590Z,96166.03
2024-01-15T03:35:55.506Z,96159.59
2024-01-15T03:38:22.164Z,96154.94
2024-01-15T03:40:49.023Z,96154.41
2024-01-15T03:43:15.786Z,96145.09
2024-01-15T03:45:42.616Z,96146.00
2024-01-15T03:48:09.489Z,96139.34
2024-01-15T03:50:36.613Z,96146.91
2024-01-15T03:53:03.438Z,96138.31
2024-01-15T03:55:30.250Z,96139.03
2024-01-15T03:57:57.189Z,96145.84
2024-01-15T04:00:24.425Z,96151.41
2024-01-15T04:02:51.153Z,96155.72
2024-01-15T04:05:17.948Z,96153.25
2024-01-15T04:07:44.629Z,96162.75
2024-01-15T04:10:11.439Z,96156.81
2024-01-15T04:12:38.213Z,96166.88
2024-01-15T04:15:05.342Z,96158.25
2024-01-15T04:17:32.078Z,96160.44
2024-01-15T04:19:58.895Z,96154.31
2024-01-15T04:22:26.406Z,96154.50
2024-01-15T04:24:53.125Z,96149.84
2024-01-15T04:27:20.006Z,96147.88
2024-01-15T04:29:46.879Z,96137.28
2024-01-15T04:32:13.601Z,96133.88
2024-01-15T04:34:40.653Z,96123.84
2024-01-15T04:37:07.507Z,96128.72
2024-01-15T04:39:34.278Z,96117.22
2024-01-15T04:42:01.070Z,96111.31
2024-01-15T04:44:27.948Z,96111.31
2024-01-15T04:46:54.621Z,96110.75
2024-01-15T04:49:21.568Z,96121.53
2024-01-15T04:51:48.365Z,96112.94
2024-01-15T04:54:18.880Z,96108.28
2024-01-15T04:56:46.802Z,96109.50
2024-01-15T04:59:15.531Z,96103.41
2024-01-15T05:01:42.928Z,96103.63
2024-01-15T05:04:09.685Z,96100.91
2024-01-15T05:06:36.505Z,96089.63
2024-01-15T05:09:04.619Z,96087.66
2024-01-15T05:11:50.198Z,96074.19
2024-01-15T05:14:35.567Z,96066.50
2024-01-15T05:17:02.308Z,96061.28
2024-01-15T05:19:29.122Z,96057.34
2024-01-15T05:21:56.165Z,96061.47
2024-01-15T05:24:23.029Z,96062.19
2024-01-15T05:27:08.301Z,96057.53
2024-01-15T05:29:35.028Z,96054.31
2024-01-15T05:32:02.690Z,96049.63
2024-01-15T05:34:29.887Z,96054.47
2024-01-15T05:36:56.656Z,96047.66
2024-01-15T05:39:24.207Z,96045.69
2024-01-15T05:41:51.167Z,96045.16
2024-01-15T05:44:18.008Z,96038.53
2024-01-15T05:46:44.661Z,96024.34
2024-01-15T05:49:11.615Z,96024.53
2024-01-15T05:51:38.668Z,96021.28
2024-01-15T05:54:23.896Z,96014.13
2024-01-15T05:56:50.902Z,96017.69
2024-01-15T05:59:18.123Z,96031.34
2024-01-15T06:01:44.893Z,96046.25
2024-01-15T06:04:11.839Z,96042.28
2024-01-15T06:06:38.697Z,96019.34
2024-01-15T06:09:08.473Z,96037.47
2024-01-15T06:11:35.748Z,96036.03
2024-01-15T06:14:02.449Z,96023.44
2024-01-15T06:16:29.981Z,96037.63
2024-01-15T06:18:56.782Z,96025.59
2024-01-15T06:21:23.814Z,96023.66
2024-01-15T06:23:50.609Z,96026.34
2024-01-15T06:26:17.379Z,96027.06
2024-01-15T06:28:44.051Z,96030.47
2024-01-15T06:31:11.344Z,96031.19
2024-01-15T06:33:39.249Z,96037.81
2024-01-15T06:36:06.924Z,96027.78
2024-01-15T06:38:33.666Z,96027.78
2024-01-15T06:41:00.742Z,96033.16
2024-01-15T06:43:27.494Z,96030.47
2024-01-15T06:45:54.327Z,96043.22
2024-01-15T06:48:21.212Z,96038.53
2024-01-15T06:50:48.054Z,96033.16
2024-01-15T06:53:14.680Z,96022.56
2024-01-15T06:55:41.433Z,96028.13
2024-01-15T06:58:08.101Z,96035.47
2024-01-15T07:00:34.959Z,96032.25
2024-01-15T07:03:01.779Z,96034.41
2024-01-15T07:05:28.723Z,96043.91
2024-01-15T07:07:55.477Z,96035.84
2024-01-15T07:10:22.251Z,96042.13
2024-01-15T07:12:49.164Z,96043.56
2024-01-15T07:15:17.029Z,96038.97
2024-01-15T07:17:44.020Z,96042.66
2024-01-15T07:20:11.414Z,96038.50
2024-01-15T07:22:38.501Z,96041.16
2024-01-15T07:25:06.171Z,96040.66
2024-01-15T07:27:33.208Z,96048.94
2024-01-15T07:30:02.554Z,96056.53
2024-01-15T07:32:30.174Z,96042.63
2024-01-15T07:34:57.055Z,96042.22
2024-01-15T07:37:24.429Z,96047.53
2024-01-15T07:39:51.168Z,96046.91
2024-01-15T07:42:18.034Z,96036.50
2024-01-15T07:44:44.668Z,96043.56
2024-01-15T07:47:11.458Z,96051.41
2024-01-15T07:49:39.605Z,96053.56
2024-01-15T07:52:06.510Z,96046.84
2024-01-15T07:54:33.590Z,96039.25
2024-01-15T07:57:01.889Z,96053.16
2024-01-15T07:59:28.577Z,96057.25
2024-01-15T08:01:55.595Z,96066.63
2024-01-15T08:04:25.416Z,96067.44
2024-01-15T08:06:52.385Z,96065.91
2024-01-15T08:09:19.143Z,96060.03
2024-01-15T08:11:45.973Z,96064.25
2024-01-15T08:14:13.044Z,96059.13
2024-01-15T08:16:40.016Z,96060.56
2024-01-15T08:19:06.941Z,96055.13
2024-01-15T08:21:34.037Z,96050.50
2024-01-15T08:24:01.934Z,96053.28
2024-01-15T08:26:28.869Z,96058.16
2024-01-15T08:28:55.981Z,96052.72
2024-01-15T08:31:23.381Z,96044.88
2024-01-15T08:33:50.140Z,96052.09
2024-01-15T08:36:17.205Z,96058.41
2024-01-15T08:38:43.950Z,96058.69
2024-01-15T08:41:10.689Z,96051.19
2024-01-15T08:43:37.339Z,96047.50
2024-01-15T08:46:04.853Z,96059.75
2024-01-15T08:48:31.714Z,96063.34
2024-01-15T08:50:58.541Z,96052.44
2024-01-15T08:53:25.346Z,96063.13
2024-01-15T08:55:52.115Z,96060.47
2024-01-15T08:58:19.111Z,96058.31
2024-01-15T09:00:46.219Z,96060.69
2024-01-15T09:03:13.193Z,96054.53
2024-01-15T09:05:41.480Z,96047.31
2024-01-15T09:08:08.178Z,96046.31
2024-01-15T09:10:34.941Z,96046.09
2024-01-15T09:13:01.726Z,96040.75
2024-01-15T09:15:29.048Z,96052.50
2024-01-15T09:17:55.945Z,96038.28
2024-01-15T09:20:22.721Z,96040.13
2024-01-15T09:22:49.914Z,96035.69
2024-01-15T09:25:16.790Z,96047.75
2024-01-15T09:27:43.546Z,96039.81
2024-01-15T09:30:11.034Z,96036.81
2024-01-15T09:32:38.020Z,96029.41
2024-01-15T09:35:05.192Z,96032.91
2024-01-15T09:37:41.846Z,96030.34
2024-01-15T09:40:18.203Z,96032.31
2024-01-15T09:42:47.153Z,96025.91
2024-01-15T09:45:14.712Z,96029.13
2024-01-15T09:48:00.040Z,96033.41
2024-01-15T09:50:27.565Z,96035.78
2024-01-15T09:52:55.369Z,96045.97
2024-01-15T09:55:22.429Z,96036.00
2024-01-15T09:57:49.642Z,96021.47
2024-01-15T10:00:19.125Z,96030.13
2024-01-15T10:02:45.923Z,96037.53
2024-01-15T10:05:12.639Z,96048.47
2024-01-15T10:07:40.825Z,96050.63
2024-01-15T10:10:08.746Z,96041.25
2024-01-15T10:12:36.038Z,96050.53
2024-01-15T10:15:02.872Z,96053.22
2024-01-15T10:17:29.790Z,96051.75
2024-01-15T10:19:56.796Z,96044.25
2024-01-15T10:22:24.354Z,96051.38
2024-01-15T10:24:51.383Z,96054.84
2024-01-15T10:27:18.244Z,96050.13
2024-01-15T10:29:45.126Z,96040.53
2024-01-15T10:32:12.773Z,96051.16
2024-01-15T10:34:44.581Z,96033.53
2024-01-15T10:37:11.612Z,96037.72
2024-01-15T10:39:39.017Z,96025.88
2024-01-15T10:42:07.501Z,96036.28
2024-01-15T10:44:34.576Z,96032.28
2024-01-15T10:47:01.842Z,96028.06
2024-01-15T10:49:32.726Z,96011.66
2024-01-15T10:52:02.013Z,96022.19
2024-01-15T10:54:30.554Z,96019.19
2024-01-15T10:56:58.089Z,96001.88
2024-01-15T10:59:25.170Z,96013.84
2024-01-15T11:01:56.206Z,96015.81
2024-01-15T11:04:24.954Z,96007.13
2024-01-15T11:06:57.933Z,96013.84
2024-01-15T11:09:25.738Z,96014.75
2024-01-15T11:12:07.884Z,96011.03
2024-01-15T11:14:58.426Z,96014.72
2024-01-15T11:17:25.264Z,96020.41
2024-01-15T11:19:52.721Z,96013.25
2024-01-15T11:22:49.635Z,96003.19
2024-01-15T11:25:17.424Z,96005.69
2024-01-15T11:27:46.088Z,96006.63
2024-01-15T11:30:14.017Z,96005.78
2024-01-15T11:32:44.707Z,96005.69
2024-01-15T11:35:12.334Z,96003.31
2024-01-15T11:37:51.635Z,95998.13
2024-01-15T11:40:39.832Z,95998.34
2024-01-15T11:43:08.050Z,96002.28
2024-01-15T11:45:35.309Z,95995.47
2024-01-15T11:48:13.116Z,95989.47
2024-01-15T11:50:49.007Z,95999.06
2024-01-15T11:53:19.490Z,96009.91
2024-01-15T11:55:46.930Z,96002.16
2024-01-15T11:58:13.866Z,96006.41
2024-01-15T12:00:43.128Z,96020.63
2024-01-15T12:03:10.760Z,96016.81
2024-01-15T12:05:42.221Z,96013.72
2024-01-15T12:08:12.612Z,96017.13
2024-01-15T12:10:41.902Z,96017.41
2024-01-15T12:13:12.013Z,96008.34
2024-01-15T12:15:39.713Z,96018.34
2024-01-15T12:18:06.816Z,96019.06
2024-01-15T12:20:33.968Z,96017.41
2024-01-15T12:23:03.508Z,96024.75
2024-01-15T12:25:32.629Z,96009.19
2024-01-15T12:28:00.279Z,96018.75
2024-01-15T12:30:50.097Z,96026.94
2024-01-15T12:33:18.907Z,96021.81
2024-01-15T12:35:45.707Z,96022.31
2024-01-15T12:38:12.943Z,96028.97
2024-01-15T12:40:40.350Z,96031.28
2024-01-15T12:43:08.379Z,96035.59
2024-01-15T12:45:36.853Z,96034.16
2024-01-15T12:48:04.890Z,96030.56
2024-01-15T12:50:32.014Z,96026.94
2024-01-15T12:53:00.747Z,96038.53
2024-01-15T12:55:27.642Z,96032.03
2024-01-15T12:57:56.184Z,96026.69
2024-01-15T13:00:23.539Z,96028.84
2024-01-15T13:02:51.086Z,96036.88
2024-01-15T13:05:18.535Z,96043.78
2024-01-15T13:07:45.534Z,96034.13
2024-01-15T13:10:13.035Z,96035.38
2024-01-15T13:12:42.514Z,96035.69
2024-01-15T13:15:14.638Z,96044.44
2024-01-15T13:17:43.224Z,96052.47
2024-01-15T13:20:12.465Z,96063.41
2024-01-15T13:22:40.972Z,96058.34
2024-01-15T13:25:09.301Z,96056.38
2024-01-15T13:27:36.883Z,96047.34
2024-01-15T13:30:05.053Z,96052.78
2024-01-15T13:32:31.909Z,96049.19
2024-01-15T13:34:59.274Z,96061.31
2024-01-15T13:37:26.221Z,96058.38
2024-01-15T13:39:53.964Z,96061.88
2024-01-15T13:42:23.696Z,96064.03
2024-01-15T13:44:51.165Z,96075.25
2024-01-15T13:47:17.921Z,96076.25
2024-01-15T13:49:44.813Z,96078.75
2024-01-15T13:52:11.584Z,96081.09
2024-01-15T13:54:45.901Z,96081.13
2024-01-15T13:57:21.091Z,96091.44
2024-01-15T13:59:48.238Z,96099.47
2024-01-15T14:02:18.161Z,96104.41
2024-01-15T14:04:48.466Z,96104.69
2024-01-15T14:07:15.334Z,96094.50
2024-01-15T14:09:42.126Z,96084.72
2024-01-15T14:12:08.877Z,96089.38
2024-01-15T14:14:35.607Z,96096.16
2024-01-15T14:17:02.281Z,96094.72
2024-01-15T14:19:29.522Z,96107.38
2024-01-15T14:21:56.793Z,96110.28
2024-01-15T14:24:23.679Z,96119.66
2024-01-15T14:26:50.391Z,96123.47
2024-01-15T14:29:17.199Z,96129.66
2024-01-15T14:31:43.912Z,96135.81
2024-01-15T14:34:10.897Z,96134.19
2024-01-15T14:36:38.326Z,96137.16
2024-01-15T14:39:05.898Z,96137.97
2024-01-15T14:41:32.698Z,96145.59
2024-01-15T14:43:59.608Z,96144.06
2024-01-15T14:46:28.197Z,96153.53
2024-01-15T14:48:55.201Z,96148.78
2024-01-15T14:51:21.993Z,96158.06
2024-01-15T14:53:48.786Z,96150.31
2024-01-15T14:56:17.519Z,96163.00
2024-01-15T14:58:45.472Z,96182.44
2024-01-15T15:01:12.452Z,96168.66
2024-01-15T15:03:39.378Z,96181.34
2024-01-15T15:06:08.579Z,96180.00
2024-01-15T15:08:37.354Z,96188.34
2024-01-15T15:11:05.094Z,96190.91
2024-01-15T15:13:38.444Z,96198.09
2024-01-15T15:16:11.919Z,96197.47
2024-01-15T15:18:38.970Z,96205.16
2024-01-15T15:21:06.071Z,96199.69
2024-01-15T15:23:32.876Z,96199.69
2024-01-15T15:25:59.950Z,96196.97
2024-01-15T15:28:26.620Z,96201.19
2024-01-15T15:30:53.473Z,96206.09
2024-01-15T15:33:20.337Z,96210.78
2024-01-15T15:35:47.163Z,96208.84
2024-01-15T15:38:13.902Z,96217.59
2024-01-15T15:40:40.789Z,96219.41
2024-01-15T15:43:07.609Z,96225.31
2024-01-15T15:45:34.474Z,96223.78
2024-01-15T15:48:01.262Z,96226.72
2024-01-15T15:50:28.866Z,96233.69
2024-01-15T15:52:56.966Z,96234.72
2024-01-15T15:55:24.794Z,96230.72
2024-01-15T15:57:51.505Z,96235.00
2024-01-15T16:00:18.648Z,96234.38
2024-01-15T16:02:45.360Z,96234.31
2024-01-15T16:05:12.339Z,96241.00
2024-01-15T16:07:39.356Z,96243.94
2024-01-15T16:10:06.633Z,96249.44
2024-01-15T16:12:34.159Z,96259.22
2024-01-15T16:15:02.209Z,96267.00
2024-01-15T16:23:15.919Z,96268.34
2024-01-15T16:23:29.870Z,96270.81
2024-01-15T16:23:53.879Z,96276.53
2024-01-15T16:25:51.947Z,96277.78
2024-01-15T16:28:19.249Z,96280.56
2024-01-15T16:30:47.977Z,96287.91
2024-01-15T16:33:14.976Z,96296.09
2024-01-15T16:35:41.883Z,96298.03
2024-01-15T16:38:09.327Z,96304.63
2024-01-15T16:40:37.774Z,96304.09
2024-01-15T16:43:07.591Z,96307.34
2024-01-15T16:45:34.261Z,96306.16
2024-01-15T16:48:01.607Z,96309.81
2024-01-15T16:50:28.670Z,96312.50
2024-01-15T16:52:55.419Z,96308.44
2024-01-15T16:55:22.608Z,96324.66
2024-01-15T16:57:49.657Z,96321.91
2024-01-15T17:00:16.958Z,96328.34
2024-01-15T17:02:44.191Z,96333.03
2024-01-15T17:05:11.175Z,96336.19
2024-01-15T17:07:38.154Z,96346.38
2024-01-15T17:10:05.906Z,96356.84
2024-01-15T17:12:32.548Z,96355.84
2024-01-15T17:14:59.296Z,96354.38
2024-01-15T17:17:26.030Z,96362.84
2024-01-15T17:19:52.810Z,96366.78
2024-01-15T17:22:19.482Z,96368.25
2024-01-15T17:24:46.279Z,96379.97
2024-01-15T17:27:12.911Z,96380.22
2024-01-15T17:29:39.665Z,96387.59
2024-01-15T17:32:07.534Z,96384.94
2024-01-15T17:34:34.472Z,96386.44
2024-01-15T17:37:01.314Z,96388.72
2024-01-15T17:39:28.162Z,96385.88
2024-01-15T17:41:54.920Z,96381.56
2024-01-15T17:44:21.806Z,96381.88
2024-01-15T17:46:48.515Z,96380.72
2024-01-15T17:49:15.346Z,96384.97
2024-01-15T17:51:42.082Z,96385.06
2024-01-15T17:54:10.237Z,96384.47
2024-01-15T17:56:37.331Z,96390.44
2024-01-15T17:59:04.320Z,96390.53
2024-01-15T18:01:32.634Z,96387.97
2024-01-15T18:04:04.272Z,96396.63
2024-01-15T18:06:32.247Z,96397.97
2024-01-15T18:08:59.109Z,96400.00
2024-01-15T18:11:26.038Z,96407.97
2024-01-15T18:13:52.926Z,96411.06
2024-01-15T18:16:23.985Z,96421.69
2024-01-15T18:18:54.031Z,96417.63
2024-01-15T18:21:22.662Z,96432.91
2024-01-15T18:23:49.807Z,96433.53
2024-01-15T18:26:16.942Z,96442.00
2024-01-15T18:28:43.761Z,96441.88
2024-01-15T18:31:10.506Z,96451.78
2024-01-15T18:33:37.475Z,96437.50
2024-01-15T18:36:05.179Z,96441.31
2024-01-15T18:38:32.058Z,96450.53
2024-01-15T18:41:00.452Z,96446.28
2024-01-15T18:43:31.028Z,96458.16
2024-01-15T18:45:57.770Z,96457.81
2024-01-15T18:48:24.595Z,96453.38
2024-01-15T18:50:52.602Z,96460.59
2024-01-15T18:53:19.347Z,96459.53
2024-01-15T18:55:46.067Z,96469.25
2024-01-15T18:58:12.851Z,96466.75
2024-01-15T19:00:39.529Z,96465.72
2024-01-15T19:03:06.929Z,96473.47
2024-01-15T19:05:33.717Z,96480.47
2024-01-15T19:08:00.718Z,96481.91
2024-01-15T19:10:27.819Z,96477.47
2024-01-15T19:12:54.531Z,96488.94
2024-01-15T19:15:21.470Z,96489.66
2024-01-15T19:17:50.031Z,96487.88
2024-01-15T19:20:17.276Z,96495.25
2024-01-15T19:22:44.064Z,96489.13
2024-01-15T19:25:12.763Z,96497.41
2024-01-15T19:27:44.381Z,96506.72
2024-01-15T19:30:15.754Z,96502.81
2024-01-15T19:32:42.701Z,96495.25
2024-01-15T19:35:11.152Z,96495.94
2024-01-15T19:37:38.960Z,96494.00
2024-01-15T19:40:07.808Z,96499.91
2024-01-15T19:42:34.581Z,96501.16
2024-01-15T19:45:01.292Z,96493.06
2024-01-15T19:47:29.330Z,96487.50
2024-01-15T19:49:56.044Z,96490.19
2024-01-15T19:52:22.806Z,96494.84
2024-01-15T19:54:49.474Z,96503.66
2024-01-15T19:57:16.543Z,96490.69
2024-01-15T19:59:43.842Z,96504.16
2024-01-15T20:02:10.690Z,96506.84
2024-01-15T20:04:37.425Z,96505.63
2024-01-15T20:07:04.462Z,96506.84
2024-01-15T20:09:31.234Z,96505.63
2024-01-15T20:11:58.031Z,96513.69
2024-01-15T20:14:27.072Z,96508.50
2024-01-15T20:16:53.973Z,96507.25
2024-01-15T20:19:21.028Z,96518.22
2024-01-15T20:21:47.829Z,96520.91
2024-01-15T20:24:14.715Z,96517.47
2024-01-15T20:26:41.933Z,96519.13
2024-01-15T20:29:09.561Z,96520.06
2024-01-15T20:31:36.449Z,96517.88
2024-01-15T20:34:03.629Z,96519.31
2024-01-15T20:36:30.387Z,96515.41
2024-01-15T20:38:57.587Z,96522.22
2024-01-15T20:41:25.876Z,96522.41
2024-01-15T20:43:52.828Z,96515.78
2024-01-15T20:46:19.560Z,96516.53
2024-01-15T20:49:05.087Z,96526.75
2024-01-15T20:51:31.957Z,96527.47
2024-01-15T20:53:58.620Z,96526.94
2024-01-15T20:56:25.470Z,96528.38
2024-01-15T20:58:52.281Z,96527.16
2024-01-15T21:01:19.224Z,96527.88
2024-01-15T21:03:46.175Z,96534.00
2024-01-15T21:06:13.347Z,96532.00
2024-01-15T21:08:42.412Z,96541.53
2024-01-15T21:11:09.270Z,96536.16
2024-01-15T21:13:36.181Z,96548.88
2024-01-15T21:16:03.146Z,96544.22
2024-01-15T21:18:29.989Z,96546.38
2024-01-15T21:20:56.766Z,96559.66
2024-01-15T21:23:23.632Z,96551.56
2024-01-15T21:25:50.833Z,96554.25
2024-01-15T21:28:18.412Z,96558.22
2024-01-15T21:30:45.308Z,96563.59
2024-01-15T21:33:12.431Z,96560.91
2024-01-15T21:35:40.949Z,96552.81
2024-01-15T21:38:27.120Z,96552.09
2024-01-15T21:40:53.971Z,96554.06
2024-01-15T21:43:20.597Z,96547.44
2024-01-15T21:45:47.388Z,96550.13
2024-01-15T21:48:14.935Z,96546.72
2024-01-15T21:50:42.656Z,96548.69
2024-01-15T21:53:10.226Z,96555.31
2024-01-15T21:55:36.944Z,96552.59
2024-01-15T21:58:03.898Z,96562.66
2024-01-15T22:00:30.639Z,96564.63
2024-01-15T22:02:57.489Z,96566.59
2024-01-15T22:05:24.248Z,96564.63
2024-01-15T22:07:51.041Z,96557.81
2024-01-15T22:10:17.763Z,96561.94
2024-01-15T22:12:44.842Z,96559.78
2024-01-15T22:15:13.996Z,96555.63
2024-01-15T22:17:41.152Z,96556.91
2024-01-15T22:20:08.831Z,96556.16
2024-01-15T22:22:35.937Z,96562.28
2024-01-15T22:25:03.080Z,96566.91
2024-01-15T22:27:29.849Z,96574.78
2024-01-15T22:29:58.059Z,96576.03
2024-01-15T22:32:25.684Z,96578.00
2024-01-15T22:34:53.271Z,96573.13
2024-01-15T22:37:19.930Z,96584.41
2024-01-15T22:39:46.694Z,96582.97
2024-01-15T22:42:13.389Z,96592.31
2024-01-15T22:44:40.310Z,96596.25
2024-01-15T22:47:07.091Z,96596.75
2024-01-15T22:49:33.945Z,96600.69
2024-01-15T22:52:00.610Z,96602.66
2024-01-15T22:54:27.313Z,96603.19
2024-01-15T22:56:53.998Z,96597.09
2024-01-15T22:59:23.243Z,96597.59
2024-01-15T23:01:50.267Z,96602.97
2024-01-15T23:04:17.164Z,96595.63
2024-01-15T23:06:44.060Z,96601.53
2024-01-15T23:09:10.714Z,96602.97
2024-01-15T23:11:37.854Z,96598.63
2024-01-15T23:14:05.222Z,96601.34
2024-01-15T23:16:32.060Z,96607.97
2024-01-15T23:18:58.947Z,96606.50
2024-01-15T23:21:27.416Z,96603.81
2024-01-15T23:23:54.465Z,96614.38
2024-01-15T23:26:21.607Z,96608.25
2024-01-15T23:28:50.854Z,96610.75
2024-01-15T23:31:17.672Z,96608.06
2024-01-15T23:33:44.516Z,96611.25
2024-01-15T23:36:11.425Z,96617.16
2024-01-15T23:38:39.530Z,96617.69
2024-01-15T23:41:06.454Z,96608.38
2024-01-15T23:43:33.498Z,96613.53
2024-01-15T23:46:06.704Z,96601.16
2024-01-15T23:48:41.570Z,96598.47
2024-01-15T23:51:09.608Z,96606.34
2024-01-15T23:53:36.466Z,96608.81
2024-01-15T23:56:04.546Z,96610.78
2024-01-15T23:58:31.528Z,96607.16
